createdAt,value
2019-05-03T00:01:05.391Z,99858.55
2019-05-03T00:04:09.529Z,99856.20
2019-05-03T00:07:13.505Z,99844.88
2019-05-03T00:10:18.351Z,99853.51
2019-05-03T00:13:22.616Z,99857.69
2019-05-03T00:16:32.493Z,99850.78
2019-05-03T00:19:36.780Z,99850.55
2019-05-03T00:22:41.871Z,99852.55
2019-05-03T00:25:46.303Z,99856.53
2019-05-03T00:28:52.025Z,99858.31
2019-05-03T00:31:56.420Z,99857.22
2019-05-03T00:35:02.704Z,99855.34
2019-05-03T00:38:08.694Z,99856.98
2019-05-03T00:41:12.672Z,99859.80
2019-05-03T00:44:16.809Z,99858.40
2019-05-03T00:47:22.209Z,99861.89
2019-05-03T00:50:26.162Z,99862.81
2019-05-03T00:53:31.663Z,99865.33
2019-05-03T00:56:36.121Z,99862.22
2019-05-03T00:59:41.918Z,99860.96
2019-05-03T01:02:45.994Z,99861.82
2019-05-03T01:05:49.920Z,99857.39
2019-05-03T01:08:54.384Z,99866.58
2019-05-03T01:11:58.682Z,99860.80
2019-05-03T01:15:04.229Z,99856.97
2019-05-03T01:18:12.234Z,99861.95
2019-05-03T01:21:16.427Z,99860.78
2019-05-03T01:24:21.760Z,99862.83
2019-05-03T01:27:26.297Z,99859.55
2019-05-03T01:30:31.941Z,99864.84
2019-05-03T01:33:36.112Z,99856.45
2019-05-03T01:36:39.974Z,99854.73
2019-05-03T01:39:43.812Z,99855.49
2019-05-03T01:42:47.630Z,99851.39
2019-05-03T01:45:51.930Z,99859.95
2019-05-03T01:49:17.677Z,99856.59
2019-05-03T01:52:25.705Z,99853.43
2019-05-03T01:55:48.237Z,99858.84
2019-05-03T01:58:52.479Z,99855.80
2019-05-03T02:02:14.221Z,99862.97
2019-05-03T02:05:42.665Z,99865.31
2019-05-03T02:08:46.439Z,99858.26
2019-05-03T02:11:52.508Z,99869.92
2019-05-03T02:14:56.105Z,99874.13
2019-05-03T02:18:02.524Z,99877.73
2019-05-03T02:21:06.264Z,99875.78
2019-05-03T02:24:11.851Z,99879.16
2019-05-03T02:27:15.822Z,99876.41
2019-05-03T02:30:19.804Z,99878.41
2019-05-03T02:33:24.047Z,99881.47
2019-05-03T02:36:28.066Z,99883.12
2019-05-03T02:39:33.484Z,99883.28
2019-05-03T02:42:37.762Z,99884.34
2019-05-03T02:45:51.831Z,99882.77
2019-05-03T02:49:06.429Z,99883.39
2019-05-03T02:52:29.820Z,99877.31
2019-05-03T02:55:35.935Z,99884.90
2019-05-03T02:58:39.368Z,99890.43
2019-05-03T03:01:46.302Z,99891.11
2019-05-03T03:04:49.335Z,99902.92
2019-05-03T03:07:55.919Z,99901.78
2019-05-03T03:11:01.490Z,99896.86
2019-05-03T03:14:06.914Z,99897.01
2019-05-03T03:17:14.940Z,99898.98
2019-05-03T03:20:19.347Z,99902.66
2019-05-03T03:23:26.569Z,99903.14
2019-05-03T03:26:39.328Z,99905.90
2019-05-03T03:29:38.768Z,99910.58
2019-05-03T03:32:42.348Z,99909.42
2019-05-03T03:35:48.864Z,99910.45
2019-05-03T03:38:51.838Z,99905.38
2019-05-03T03:41:57.169Z,99910.05
2019-05-03T03:45:06.165Z,99906.70
2019-05-03T03:48:15.761Z,99911.00
2019-05-03T03:51:22.174Z,99914.41
2019-05-03T03:54:26.431Z,99922.66
2019-05-03T03:57:32.442Z,99923.89
2019-05-03T04:00:36.800Z,99927.53
2019-05-03T04:03:41.120Z,99931.68
2019-05-03T04:06:46.549Z,99935.30
2019-05-03T04:09:51.559Z,99935.14
2019-05-03T04:12:56.083Z,99941.47
2019-05-03T04:16:26.161Z,99941.81
2019-05-03T04:19:32.560Z,99954.64
2019-05-03T04:22:36.543Z,99952.97
2019-05-03T04:25:41.245Z,99952.80
2019-05-03T04:28:45.624Z,99952.72
2019-05-03T04:31:49.577Z,99950.23
2019-05-03T04:34:55.998Z,99953.31
2019-05-03T04:38:00.391Z,99954.50
2019-05-03T04:41:05.812Z,99965.34
2019-05-03T04:44:10.834Z,99964.79
2019-05-03T04:47:15.735Z,99973.91
2019-05-03T04:50:19.827Z,99970.85
2019-05-03T04:53:25.965Z,99975.72
2019-05-03T04:56:29.621Z,99980.85
2019-05-03T04:59:35.890Z,99986.77
2019-05-03T05:02:39.636Z,99990.41
2019-05-03T05:05:45.367Z,99985.70
2019-05-03T05:08:49.027Z,99994.57
2019-05-03T05:11:54.852Z,99996.34
2019-05-03T05:14:58.792Z,100006.59
2019-05-03T05:18:11.318Z,100004.89
2019-05-03T05:21:25.337Z,100006.27
2019-05-03T05:24:29.605Z,100007.80
2019-05-03T05:27:48.694Z,100008.74
2019-05-03T05:30:46.155Z,100014.93
2019-05-03T05:33:50.303Z,100028.16
2019-05-03T05:36:55.379Z,100016.48
2019-05-03T05:39:59.394Z,100023.99
2019-05-03T05:43:04.940Z,100030.75
2019-05-03T05:46:09.052Z,100039.00
2019-05-03T05:49:15.300Z,100040.56
2019-05-03T05:52:19.112Z,100039.33
2019-05-03T05:55:42.073Z,100047.83
2019-05-03T05:59:07.816Z,100049.20
2019-05-03T06:02:12.064Z,100058.08
2019-05-03T06:05:15.951Z,100064.13
2019-05-03T06:08:38.002Z,100065.09
2019-05-03T06:12:04.559Z,100062.70
2019-05-03T06:15:15.757Z,100074.00
2019-05-03T06:18:25.108Z,100073.56
2019-05-03T06:21:37.332Z,100073.77
2019-05-03T06:24:46.575Z,100077.92
2019-05-03T06:27:50.496Z,100081.95
2019-05-03T06:31:19.568Z,100080.17
2019-05-03T06:34:22.564Z,100078.34
2019-05-03T06:37:29.196Z,100082.45
2019-05-03T06:40:35.356Z,100073.38
2019-05-03T06:43:39.609Z,100079.48
2019-05-03T06:46:46.329Z,100082.34
2019-05-03T06:49:50.523Z,100079.84
2019-05-03T06:52:55.069Z,100079.19
2019-05-03T06:55:59.845Z,100080.57
2019-05-03T06:59:06.907Z,100086.06
2019-05-03T07:02:39.225Z,100093.44
2019-05-03T07:06:01.098Z,100088.73
2019-05-03T07:09:25.042Z,100090.94
2019-05-03T07:12:48.471Z,100091.56
2019-05-03T07:15:53.064Z,100094.48
2019-05-03T07:18:58.614Z,100096.13
2019-05-03T07:22:04.847Z,100099.11
2019-05-03T07:25:08.391Z,100100.45
2019-05-03T07:28:12.364Z,100107.97
2019-05-03T07:31:16.258Z,100101.09
2019-05-03T07:34:20.087Z,100101.22
2019-05-03T07:37:24.726Z,100104.06
2019-05-03T07:40:28.837Z,100108.23
2019-05-03T07:43:33.053Z,100110.72
2019-05-03T07:46:37.380Z,100105.16
2019-05-03T07:49:41.291Z,100111.73
2019-05-03T07:52:45.195Z,100104.60
2019-05-03T07:56:00.988Z,100110.47
2019-05-03T07:59:06.708Z,100108.11
2019-05-03T08:02:10.837Z,100108.20
2019-05-03T08:05:15.527Z,100113.39
2019-05-03T08:08:19.456Z,100105.69
2019-05-03T08:11:24.894Z,100112.48
2019-05-03T08:14:29.376Z,100105.92
2019-05-03T08:17:34.708Z,100118.91
2019-05-03T08:20:38.553Z,100118.55
2019-05-03T08:23:42.445Z,100117.67
2019-05-03T08:26:46.370Z,100121.02
2019-05-03T08:29:50.575Z,100115.55
2019-05-03T08:33:14.842Z,100122.45
2019-05-03T08:36:18.743Z,100118.45
2019-05-03T08:39:25.012Z,100121.44
2019-05-03T08:42:28.182Z,100117.19
2019-05-03T08:45:32.057Z,100117.95
2019-05-03T08:48:35.959Z,100113.52
2019-05-03T08:51:39.902Z,100118.93
2019-05-03T08:54:44.916Z,100114.89
2019-05-03T08:57:48.941Z,100118.89
2019-05-03T09:00:54.680Z,100122.11
2019-05-03T09:03:58.730Z,100118.53
2019-05-03T09:07:02.593Z,100125.91
2019-05-03T09:10:16.806Z,100129.48
2019-05-03T09:13:21.774Z,100122.25
2019-05-03T09:16:26.549Z,100118.23
2019-05-03T09:19:30.807Z,100115.09
2019-05-03T09:22:34.883Z,100104.53
2019-05-03T09:25:38.817Z,100102.92
2019-05-03T09:28:42.711Z,100100.10
2019-05-03T09:31:46.652Z,100102.30
2019-05-03T09:34:50.817Z,100102.92
2019-05-03T09:37:55.590Z,100105.48
2019-05-03T09:40:59.787Z,100096.31
2019-05-03T09:44:04.820Z,100102.77
2019-05-03T09:47:08.724Z,100101.36
2019-05-03T09:50:15.477Z,100105.64
2019-05-03T09:53:20.733Z,100107.59
2019-05-03T09:56:47.952Z,100101.61
2019-05-03T09:59:57.112Z,100099.98
2019-05-03T10:02:54.874Z,100100.35
2019-05-03T10:05:59.476Z,100100.83
2019-05-03T10:09:05.392Z,100090.81
2019-05-03T10:12:16.137Z,100098.27
2019-05-03T10:15:36.513Z,100090.44
2019-05-03T10:18:40.591Z,100094.75
2019-05-03T10:21:46.143Z,100093.54
2019-05-03T10:24:50.064Z,100084.59
2019-05-03T10:27:55.035Z,100084.59
2019-05-03T10:30:59.251Z,100083.12
2019-05-03T10:34:05.735Z,100083.74
2019-05-03T10:37:11.942Z,100080.71
2019-05-03T10:40:19.907Z,100085.73
2019-05-03T10:43:24.855Z,100079.68
2019-05-03T10:46:29.650Z,100080.75
2019-05-03T10:49:35.207Z,100077.60
2019-05-03T10:52:44.823Z,100070.94
2019-05-03T10:56:07.745Z,100071.23
2019-05-03T10:59:11.634Z,100060.02
2019-05-03T11:02:36.117Z,100058.75
2019-05-03T11:05:40.113Z,100055.52
2019-05-03T11:08:45.130Z,100059.20
2019-05-03T11:11:49.061Z,100052.66
2019-05-03T11:14:53.190Z,100063.03
2019-05-03T11:17:57.255Z,100062.91
2019-05-03T11:21:01.480Z,100053.75
2019-05-03T11:24:05.512Z,100057.61
2019-05-03T11:27:15.205Z,100044.50
2019-05-03T11:30:19.400Z,100047.75
2019-05-03T11:33:30.025Z,100048.48
2019-05-03T11:36:45.377Z,100049.27
2019-05-03T11:39:49.694Z,100045.64
2019-05-03T11:42:55.650Z,100039.36
2019-05-03T11:45:59.969Z,100036.08
2019-05-03T11:49:05.642Z,100039.98
2019-05-03T11:52:09.786Z,100032.08
2019-05-03T11:55:15.910Z,100026.52
2019-05-03T11:58:21.694Z,100030.30
2019-05-03T12:01:44.797Z,100026.47
2019-05-03T12:04:48.213Z,100029.53
2019-05-03T12:07:52.013Z,100032.02
2019-05-03T12:11:00.761Z,100030.55
2019-05-03T12:14:11.816Z,100024.00
2019-05-03T12:17:24.216Z,100034.97
2019-05-03T12:20:25.076Z,100033.14
2019-05-03T12:23:31.660Z,100037.20
2019-05-03T12:26:43.804Z,100029.57
2019-05-03T12:29:46.260Z,100029.38
2019-05-03T12:32:50.174Z,100025.78
2019-05-03T12:35:55.215Z,100023.66
2019-05-03T12:38:59.316Z,100020.80
2019-05-03T12:42:05.866Z,100020.63
2019-05-03T12:45:09.946Z,100020.75
2019-05-03T12:48:15.525Z,100021.41
2019-05-03T12:51:20.121Z,100025.65
2019-05-03T12:54:24.590Z,100020.73
2019-05-03T12:57:28.375Z,100015.47
2019-05-03T13:01:06.802Z,100018.36
2019-05-03T13:04:15.276Z,100020.86
2019-05-03T13:07:34.830Z,100011.38
2019-05-03T13:10:38.803Z,100011.56
2019-05-03T13:13:45.034Z,100008.91
2019-05-03T13:16:48.338Z,100010.70
2019-05-03T13:19:52.286Z,100008.53
2019-05-03T13:22:56.381Z,100001.52
2019-05-03T13:26:00.255Z,100006.03
2019-05-03T13:29:05.827Z,100010.59
2019-05-03T13:32:10.046Z,100011.81
2019-05-03T13:35:15.065Z,100020.11
2019-05-03T13:38:19.041Z,100019.23
2019-05-03T13:41:24.905Z,100028.79
2019-05-03T13:44:28.800Z,100031.42
2019-05-03T13:47:34.918Z,100030.64
2019-05-03T13:50:38.773Z,100030.89
2019-05-03T13:53:42.580Z,100018.88
2019-05-03T13:56:46.420Z,100008.92
2019-05-03T13:59:50.462Z,100000.13
2019-05-03T14:02:56.340Z,100004.75
2019-05-03T14:06:00.356Z,99997.02
2019-05-03T14:09:05.865Z,99994.09
2019-05-03T14:12:09.911Z,99991.03
2019-05-03T14:15:14.918Z,99994.90
2019-05-03T14:18:19.411Z,99996.72
2019-05-03T14:21:32.110Z,100002.23
2019-05-03T14:24:36.645Z,99999.56
2019-05-03T14:27:40.468Z,99988.66
2019-05-03T14:30:45.411Z,99994.80
2019-05-03T14:33:49.413Z,99991.41
2019-05-03T14:36:55.297Z,99980.67
2019-05-03T14:39:58.754Z,99974.95
2019-05-03T14:43:04.809Z,99983.56
2019-05-03T14:46:08.865Z,99977.19
2019-05-03T14:49:14.837Z,99980.73
2019-05-03T14:52:18.876Z,99978.48
2019-05-03T14:55:53.937Z,99984.22
2019-05-03T14:59:15.959Z,99972.19
2019-05-03T15:02:42.443Z,99978.87
2019-05-03T15:05:36.249Z,99974.09
2019-05-03T15:08:40.568Z,99972.33
2019-05-03T15:11:45.287Z,99969.03
2019-05-03T15:14:49.666Z,99967.17
2019-05-03T15:17:55.048Z,99959.17
2019-05-03T15:20:59.349Z,99951.53
2019-05-03T15:24:05.286Z,99950.75
2019-05-03T15:27:09.834Z,99949.55
2019-05-03T15:30:15.526Z,99957.82
2019-05-03T15:33:19.674Z,99948.22
2019-05-03T15:36:23.822Z,99950.88
2019-05-03T15:39:27.683Z,99947.78
2019-05-03T15:42:31.546Z,99948.83
2019-05-03T15:46:02.206Z,99954.31
2019-05-03T15:49:06.196Z,99951.50
2019-05-03T15:52:10.103Z,99952.83
2019-05-03T15:55:15.224Z,99951.41
2019-05-03T15:58:19.507Z,99953.19
2019-05-03T16:01:24.872Z,99959.11
2019-05-03T16:04:28.946Z,99956.13
2019-05-03T16:07:35.385Z,99959.69
2019-05-03T16:10:39.032Z,99950.41
2019-05-03T16:13:44.680Z,99948.23
2019-05-03T16:16:49.405Z,99937.50
2019-05-03T16:19:55.741Z,99938.86
2019-05-03T16:22:59.511Z,99932.78
2019-05-03T16:26:04.987Z,99936.44
2019-05-03T16:29:11.944Z,99932.57
2019-05-03T16:32:15.926Z,99935.70
2019-05-03T16:35:19.886Z,99934.71
2019-05-03T16:38:24.884Z,99932.00
2019-05-03T16:41:28.821Z,99935.24
2019-05-03T16:44:35.733Z,99931.06
2019-05-03T16:47:39.612Z,99934.71
2019-05-03T16:50:45.170Z,99937.63
2019-05-03T16:53:49.123Z,99927.30
2019-05-03T16:56:54.899Z,99931.53
2019-05-03T16:59:59.056Z,99925.03
2019-05-03T17:03:03.156Z,99923.26
2019-05-03T17:06:20.168Z,99924.90
2019-05-03T17:09:42.752Z,99916.52
2019-05-03T17:12:46.922Z,99916.34
2019-05-03T17:15:50.966Z,99918.13
2019-05-03T17:18:55.252Z,99918.13
2019-05-03T17:21:59.193Z,99923.23
2019-05-03T17:25:04.362Z,99920.87
2019-05-03T17:28:09.293Z,99918.55
2019-05-03T17:31:13.709Z,99923.66
2019-05-03T17:34:17.527Z,99925.52
2019-05-03T17:37:23.122Z,99913.92
2019-05-03T17:40:36.278Z,99923.13
2019-05-03T17:43:47.380Z,99916.78
2019-05-03T17:46:51.652Z,99921.09
2019-05-03T17:49:56.083Z,99919.77
2019-05-03T17:53:18.346Z,99914.70
2019-05-03T17:56:40.487Z,99925.37
2019-05-03T17:59:48.320Z,99921.61
2019-05-03T18:02:52.282Z,99919.14
2019-05-03T18:06:04.737Z,99922.93
2019-05-03T18:09:15.225Z,99930.55
2019-05-03T18:12:18.990Z,99924.51
2019-05-03T18:15:22.892Z,99934.39
2019-05-03T18:18:26.683Z,99933.64
2019-05-03T18:21:30.473Z,99930.39
2019-05-03T18:24:35.225Z,99932.89
2019-05-03T18:27:39.281Z,99936.62
2019-05-03T18:30:45.331Z,99933.25
2019-05-03T18:33:49.072Z,99943.30
2019-05-03T18:36:52.872Z,99942.11
2019-05-03T18:39:56.875Z,99948.06
2019-05-03T18:43:11.872Z,99950.98
2019-05-03T18:46:27.690Z,99954.17
2019-05-03T18:49:31.606Z,99947.93
2019-05-03T18:52:35.416Z,99953.69
2019-05-03T18:55:39.451Z,99950.67
2019-05-03T18:58:44.821Z,99953.52
2019-05-03T19:01:48.798Z,99945.91
2019-05-03T19:04:54.937Z,99947.92
2019-05-03T19:08:09.847Z,99951.03
2019-05-03T19:11:24.394Z,99962.93
2019-05-03T19:14:28.471Z,99957.41
2019-05-03T19:17:49.764Z,99955.92
2019-05-03T19:20:55.092Z,99959.59
2019-05-03T19:23:58.854Z,99959.33
2019-05-03T19:27:02.770Z,99961.91
2019-05-03T19:30:07.155Z,99956.75
2019-05-03T19:33:11.047Z,99959.56
2019-05-03T19:36:15.131Z,99958.07
2019-05-03T19:39:18.925Z,99960.45
2019-05-03T19:42:26.946Z,99960.20
2019-05-03T19:45:28.474Z,99957.80
2019-05-03T19:48:32.340Z,99961.82
2019-05-03T19:51:36.500Z,99959.24
2019-05-03T19:54:40.521Z,99962.57
2019-05-03T19:57:44.981Z,99960.85
2019-05-03T20:01:00.182Z,99961.30
2019-05-03T20:04:16.754Z,99967.05
2019-05-03T20:07:42.837Z,99963.25
2019-05-03T20:10:47.144Z,99963.73
2019-05-03T20:13:50.989Z,99959.66
2019-05-03T20:16:55.107Z,99954.38
2019-05-03T20:19:58.960Z,99960.98
2019-05-03T20:23:05.141Z,99962.70
2019-05-03T20:26:08.591Z,99956.00
2019-05-03T20:29:12.363Z,99953.36
2019-05-03T20:32:17.243Z,99950.72
2019-05-03T20:35:21.509Z,99955.70
2019-05-03T20:38:26.481Z,99953.30
2019-05-03T20:41:30.508Z,99948.94
2019-05-03T20:44:44.782Z,99945.99
2019-05-03T20:47:54.834Z,99942.49
2019-05-03T20:50:58.924Z,99940.37
2019-05-03T20:54:04.857Z,99940.16
2019-05-03T20:57:08.911Z,99945.99
2019-05-03T21:00:15.426Z,99949.09
2019-05-03T21:03:19.229Z,99947.08
2019-05-03T21:06:34.844Z,99947.99
2019-05-03T21:09:29.801Z,99949.72
2019-05-03T21:12:34.648Z,99946.61
2019-05-03T21:16:00.372Z,99947.29
2019-05-03T21:19:24.867Z,99954.05
2019-05-03T21:22:41.812Z,99947.56
2019-05-03T21:26:11.346Z,99943.53
2019-05-03T21:29:07.286Z,99947.70
2019-05-03T21:32:11.068Z,99946.19
2019-05-03T21:35:14.948Z,99945.33
2019-05-03T21:38:18.807Z,99949.36
2019-05-03T21:41:24.460Z,99946.13
2019-05-03T21:44:31.783Z,99952.68
2019-05-03T21:47:57.943Z,99943.34
2019-05-03T21:51:01.818Z,99948.77
2019-05-03T21:54:06.919Z,99943.83
2019-05-03T21:57:10.681Z,99947.14
2019-05-03T22:00:15.549Z,99947.05
2019-05-03T22:03:19.649Z,99939.14
2019-05-03T22:06:24.685Z,99941.52
2019-05-03T22:09:28.577Z,99938.08
2019-05-03T22:12:32.431Z,99937.65
2019-05-03T22:15:45.536Z,99934.25
2019-05-03T22:18:49.641Z,99927.54
2019-05-03T22:22:12.437Z,99928.34
2019-05-03T22:25:17.924Z,99918.83
2019-05-03T22:28:22.166Z,99920.70
2019-05-03T22:31:26.751Z,99917.37
2019-05-03T22:34:31.024Z,99909.55
2019-05-03T22:37:35.468Z,99905.90
2019-05-03T22:40:39.735Z,99906.70
2019-05-03T22:43:45.682Z,99900.22
2019-05-03T22:46:49.612Z,99893.53
2019-05-03T22:49:54.759Z,99898.54
2019-05-03T22:52:58.889Z,99896.94
2019-05-03T22:56:04.746Z,99896.29
2019-05-03T22:59:08.974Z,99893.80
2019-05-03T23:02:12.856Z,99893.00
2019-05-03T23:05:16.779Z,99887.72
2019-05-03T23:08:20.651Z,99879.95
2019-05-03T23:11:24.655Z,99877.05
2019-05-03T23:14:28.500Z,99877.03
2019-05-03T23:17:34.632Z,99870.19
2019-05-03T23:20:48.367Z,99867.99
2019-05-03T23:23:54.890Z,99869.77
2019-05-03T23:26:59.478Z,99865.45
2019-05-03T23:30:04.945Z,99853.95
2019-05-03T23:33:09.210Z,99851.25
2019-05-03T23:36:15.198Z,99843.61
2019-05-03T23:39:18.795Z,99841.23
2019-05-03T23:42:24.517Z,99835.39
2019-05-03T23:45:28.772Z,99842.84
2019-05-03T23:48:32.538Z,99838.23
2019-05-03T23:51:49.653Z,99833.53
2019-05-03T23:54:54.910Z,99824.97
2019-05-03T23:57:59.147Z,99829.53
